Tyler — WDH2928 — position and weather

sailwx.info

Track history (hours):
 
Tides and Currents Weather Stations Pressure Air Temp Water Temp Dewpoint Dewpoint Depression Visibility Wind Speed Wind Dir Waves Ship Positions

Tyler

Owner: F/V Tyler Inc, Gloucester, MA. More information available from US FCC via Universal Licensing System and Coast Guard Vessel Documentation Center.

Last reported at 2017-Oct-18 01:55 UTC. Time now 2017-Oct-20 19:39 UTC.
Position N 42°39' W 070°18'.

Length 20 m; draft 14 m.

Type: Ship. MMSI: 367602610.

Date/timePositionNaut miles runAvg speedWind from/ knotsBaromVisibWave heightAir tempDewpointWater temp
2017-Oct-18 01:55N 42°39' W 070°18'2 5.4
2017-Oct-18 01:30N 42°39' W 070°21'4 7.7
2017-Oct-18 01:00N 42°37' W 070°26'4 7.9
2017-Oct-18 00:30N 42°36' W 070°31'4 7.9
2017-Oct-18 00:00N 42°35' W 070°36'4 7.1
2017-Oct-17 23:30N 42°34' W 070°41'3 5.0
2017-Oct-17 23:00N 42°37' W 070°39'0 0.1
2017-Oct-17 22:30N 42°37' W 070°39'0 0.0
2017-Oct-17 22:00N 42°37' W 070°39'0 0.0
2017-Oct-17 21:30N 42°37' W 070°39'0 0.0
2017-Oct-17 21:00N 42°37' W 070°39'0 0.0
2017-Oct-17 20:30N 42°37' W 070°39'0 0.0
2017-Oct-17 20:00N 42°37' W 070°39'0 0.0
2017-Oct-17 19:30N 42°37' W 070°39'0 0.0
2017-Oct-17 19:00N 42°37' W 070°39'0 0.0
2017-Oct-17 18:30N 42°37' W 070°39'0 0.9
2017-Oct-17 18:00N 42°37' W 070°40'0 0.0
2017-Oct-17 17:30N 42°37' W 070°40'0 0.0
2017-Oct-17 17:00N 42°37' W 070°40'0 0.0
2017-Oct-17 16:30N 42°37' W 070°40'0 0.2
2017-Oct-17 16:00N 42°37' W 070°40'0 0.0
2017-Oct-17 15:31N 42°37' W 070°40'0 0.0
2017-Oct-17 15:00N 42°37' W 070°40'0 0.0
2017-Oct-17 14:30N 42°37' W 070°40'0 0.0
2017-Oct-17 14:00N 42°37' W 070°40'0 0.0
2017-Oct-17 13:30N 42°37' W 070°40'0 0.0
2017-Oct-17 13:01N 42°37' W 070°40'0 0.0
2017-Oct-17 12:30N 42°37' W 070°40'1 1.0
2017-Oct-17 12:00N 42°37' W 070°39'0 0.0
2017-Oct-17 11:30N 42°37' W 070°39'0 0.0
2017-Oct-17 11:00N 42°37' W 070°39'0 0.0
2017-Oct-17 10:30N 42°37' W 070°39'0 0.0
2017-Oct-17 10:00N 42°37' W 070°39'0 0.0
2017-Oct-17 09:30N 42°37' W 070°39'0 0.0
2017-Oct-17 09:00N 42°37' W 070°39'0 0.0
2017-Oct-17 08:30N 42°37' W 070°39'0 0.0
2017-Oct-17 08:00N 42°37' W 070°39'0 0.0
2017-Oct-17 07:31N 42°37' W 070°39'0 0.0
2017-Oct-17 07:00N 42°37' W 070°39'0 0.0
2017-Oct-17 06:30N 42°37' W 070°39'0 0.0
2017-Oct-17 06:00N 42°37' W 070°39'0 0.0
2017-Oct-17 05:30N 42°37' W 070°39'0 0.0
2017-Oct-17 05:00N 42°37' W 070°39'0 0.0
2017-Oct-17 04:30N 42°37' W 070°39'0 0.0
2017-Oct-17 04:00N 42°37' W 070°39'0 0.0
2017-Oct-17 03:30N 42°37' W 070°39'0 0.0
2017-Oct-17 03:00N 42°37' W 070°39'0 0.0
2017-Oct-17 02:30N 42°37' W 070°39'0 0.0
2017-Oct-17 02:00N 42°37' W 070°39'0 0.0
2017-Oct-17 01:30N 42°37' W 070°39'0 0.0
2017-Oct-17 01:00N 42°37' W 070°39'0 0.0
2017-Oct-17 00:30N 42°37' W 070°39'0 0.0
2017-Oct-17 00:00N 42°37' W 070°39'0 0.0
2017-Oct-16 23:30N 42°37' W 070°39'0 0.0
2017-Oct-16 23:00N 42°37' W 070°39'0 0.0
2017-Oct-16 22:30N 42°37' W 070°39'0 0.0
2017-Oct-16 22:00N 42°37' W 070°39'0 0.0
2017-Oct-16 21:30N 42°37' W 070°39'0 0.0
2017-Oct-16 21:00N 42°37' W 070°39'0 0.0
2017-Oct-16 20:30N 42°37' W 070°39'0 0.0
2017-Oct-16 20:00N 42°37' W 070°39'0 0.0
2017-Oct-16 19:30N 42°37' W 070°39'0 0.0
2017-Oct-16 19:00N 42°37' W 070°39'0 0.0
2017-Oct-16 18:30N 42°37' W 070°39'0 0.0
2017-Oct-16 18:00N 42°37' W 070°39'0 0.0
2017-Oct-16 17:30N 42°37' W 070°39'0 0.0
2017-Oct-16 17:00N 42°37' W 070°39'0 0.0
2017-Oct-16 16:30N 42°37' W 070°39'0 0.0
2017-Oct-16 16:00N 42°37' W 070°39'0 0.0
2017-Oct-16 15:30N 42°37' W 070°39'0 0.0
2017-Oct-16 15:00N 42°37' W 070°39'0 0.0
2017-Oct-16 14:00N 42°37' W 070°39'0 0.8
2017-Oct-16 13:30N 42°37' W 070°40'2 4.7
2017-Oct-16 13:00N 42°34' W 070°40'4 7.1
2017-Oct-16 12:30N 42°35' W 070°35'3 5.8
2017-Oct-16 12:00N 42°37' W 070°32'3 6.6
2017-Oct-16 11:30N 42°39' W 070°28'3 6.0
2017-Oct-16 11:00N 42°39' W 070°24'3 5.5
2017-Oct-16 10:30N 42°40' W 070°21'3 5.5
2017-Oct-16 10:00N 42°41' W 070°17'  
2017-Oct-11 23:13N 42°43' W 070°13'2 8.8
2017-Oct-11 23:00N 42°42' W 070°15'4 8.9
2017-Oct-11 22:30N 42°40' W 070°20'4 8.9
2017-Oct-11 22:00N 42°38' W 070°26'4 8.6
2017-Oct-11 21:30N 42°36' W 070°31'4 8.7
2017-Oct-11 21:00N 42°35' W 070°37'3 5.9
2017-Oct-11 20:30N 42°36' W 070°41'2 3.0
2017-Oct-11 20:00N 42°37' W 070°39'0 0.9
2017-Oct-11 19:30N 42°37' W 070°40'0 0.1
2017-Oct-11 19:00N 42°37' W 070°40'0 0.0
2017-Oct-11 18:30N 42°37' W 070°40'0 0.9
2017-Oct-11 18:00N 42°37' W 070°39'0 0.0
2017-Oct-11 17:30N 42°37' W 070°39'0 0.0
2017-Oct-11 17:00N 42°37' W 070°39'0 0.0
2017-Oct-11 00:00N 42°37' W 070°39'0 0.0
2017-Oct-10 23:30N 42°37' W 070°39'0 0.0
2017-Oct-10 23:00N 42°37' W 070°39'0 0.0
2017-Oct-10 22:30N 42°37' W 070°39'0 0.0
2017-Oct-10 22:00N 42°37' W 070°39'0 0.0
2017-Oct-10 21:30N 42°37' W 070°39'0 0.0
2017-Oct-10 21:00N 42°37' W 070°39'0 0.0
2017-Oct-10 20:30N 42°37' W 070°39'0 0.2
2017-Oct-10 20:00N 42°37' W 070°39'0 0.0
2017-Oct-10 19:30N 42°37' W 070°39'0 0.0
2017-Oct-10 19:00N 42°37' W 070°39'0 0.0
2017-Oct-10 18:30N 42°37' W 070°39'0 0.0
2017-Oct-10 18:00N 42°37' W 070°39'0 0.0
2017-Oct-10 17:30N 42°37' W 070°39'0 0.0
2017-Oct-10 17:01N 42°37' W 070°39'0 0.3
2017-Oct-10 16:31N 42°37' W 070°39'0 0.1
2017-Oct-10 15:28N 42°37' W 070°39'0 0.0
2017-Oct-10 15:00N 42°37' W 070°39'0 0.0
2017-Oct-10 14:00N 42°37' W 070°39'0 0.0
2017-Oct-10 13:30N 42°37' W 070°39'0 0.0
2017-Oct-10 13:01N 42°37' W 070°39'0 0.0
2017-Oct-10 12:31N 42°37' W 070°39'0 0.0
2017-Oct-10 12:00N 42°37' W 070°39'0 0.0
2017-Oct-10 11:30N 42°37' W 070°39'0 0.0
2017-Oct-10 11:00N 42°37' W 070°39'0 0.0
2017-Oct-10 10:30N 42°37' W 070°39'0 0.0
2017-Oct-10 10:00N 42°37' W 070°39'0 0.0
2017-Oct-10 09:30N 42°37' W 070°39'0 0.0
2017-Oct-10 09:00N 42°37' W 070°39'0 0.0
2017-Oct-10 08:30N 42°37' W 070°39'0 0.0
2017-Oct-10 08:01N 42°37' W 070°39'0 0.0
2017-Oct-10 07:30N 42°37' W 070°39'0 0.0
2017-Oct-10 07:00N 42°37' W 070°39'0 0.0
2017-Oct-10 06:31N 42°37' W 070°39'0 0.0
2017-Oct-10 06:01N 42°37' W 070°39'0 0.0
2017-Oct-10 05:31N 42°37' W 070°39'0 0.0
2017-Oct-10 05:01N 42°37' W 070°39'0 0.0
2017-Oct-10 04:30N 42°37' W 070°39'0 0.0
2017-Oct-10 04:01N 42°37' W 070°39'0 0.0
2017-Oct-10 03:31N 42°37' W 070°39'0 0.0
2017-Oct-10 03:01N 42°37' W 070°39'0 0.0
2017-Oct-10 02:31N 42°37' W 070°39'0 0.0
2017-Oct-10 02:00N 42°37' W 070°39'0 0.0
2017-Oct-10 01:30N 42°37' W 070°39'0 0.0
2017-Oct-10 01:00N 42°37' W 070°39'0 0.0
2017-Oct-10 00:31N 42°37' W 070°39'0 0.0
2017-Oct-10 00:00N 42°37' W 070°39'0 0.0
2017-Oct-09 23:31N 42°37' W 070°39'0 0.0
2017-Oct-09 23:00N 42°37' W 070°39'0 0.0
2017-Oct-09 22:31N 42°37' W 070°39'0 0.0
2017-Oct-09 22:01N 42°37' W 070°39'0 0.0
2017-Oct-09 21:31N 42°37' W 070°39'0 0.0
2017-Oct-09 21:01N 42°37' W 070°39'0 0.0
2017-Oct-09 20:30N 42°37' W 070°39'0 0.0
2017-Oct-09 20:01N 42°37' W 070°39'0 0.0
2017-Oct-09 19:31N 42°37' W 070°39'0 0.0
2017-Oct-09 19:01N 42°37' W 070°39'0 0.0
2017-Oct-09 18:30N 42°37' W 070°39'0 0.0
2017-Oct-09 18:01N 42°37' W 070°39'0 0.0
2017-Oct-09 17:30N 42°37' W 070°39'0 0.0
2017-Oct-09 17:00N 42°37' W 070°39'0 0.0
2017-Oct-09 16:30N 42°37' W 070°39'0 0.0
2017-Oct-09 16:00N 42°37' W 070°39'0 0.0
2017-Oct-09 15:31N 42°37' W 070°39'0 0.0
2017-Oct-09 15:00N 42°37' W 070°39'0 0.0
2017-Oct-09 14:30N 42°37' W 070°39'0 0.0
2017-Oct-09 14:00N 42°37' W 070°39'0 0.0
2017-Oct-09 13:30N 42°37' W 070°39'0 0.0
2017-Oct-09 13:00N 42°37' W 070°39'0 0.0
2017-Oct-09 12:30N 42°37' W 070°39'0 0.0
2017-Oct-09 12:00N 42°37' W 070°39'0 0.0
2017-Oct-09 11:30N 42°37' W 070°39'0 0.0
2017-Oct-09 11:00N 42°37' W 070°39'0 0.0
2017-Oct-09 10:30N 42°37' W 070°39'0 0.0
2017-Oct-09 10:00N 42°37' W 070°39'0 0.0
2017-Oct-09 09:30N 42°37' W 070°39'0 0.0
2017-Oct-09 09:00N 42°37' W 070°39'0 0.0
2017-Oct-09 08:30N 42°37' W 070°39'0 0.0
2017-Oct-09 08:00N 42°37' W 070°39'0 0.0
2017-Oct-09 07:30N 42°37' W 070°39'0 0.0
2017-Oct-09 07:01N 42°37' W 070°39'0 0.0
2017-Oct-09 06:31N 42°37' W 070°39'0 0.0
2017-Oct-09 06:01N 42°37' W 070°39'0 0.0
2017-Oct-09 05:29N 42°37' W 070°39'0 0.0
2017-Oct-09 05:00N 42°37' W 070°39'0 0.0
2017-Oct-09 04:30N 42°37' W 070°39'0 0.0
2017-Oct-09 04:00N 42°37' W 070°39'0 0.0
2017-Oct-09 03:30N 42°37' W 070°39'0 0.0
2017-Oct-09 03:01N 42°37' W 070°39'0 0.0
2017-Oct-09 02:30N 42°37' W 070°39'0 0.0
2017-Oct-09 02:01N 42°37' W 070°39'0 0.0
2017-Oct-09 01:30N 42°37' W 070°39'0 0.0
2017-Oct-09 01:00N 42°37' W 070°39'0 0.0
2017-Oct-09 00:31N 42°37' W 070°39'0 0.0
2017-Oct-09 00:00N 42°37' W 070°39'0 0.0
2017-Oct-08 23:31N 42°37' W 070°39'0 0.0
2017-Oct-08 23:00N 42°37' W 070°39'0 0.0
2017-Oct-08 22:31N 42°37' W 070°39'0 0.0
2017-Oct-08 22:01N 42°37' W 070°39'0 0.0
2017-Oct-08 21:31N 42°37' W 070°39'0 0.0
2017-Oct-08 21:00N 42°37' W 070°39'0 0.0
2017-Oct-08 20:30N 42°37' W 070°39'0 0.0
2017-Oct-08 20:00N 42°37' W 070°39'0 0.0
2017-Oct-08 19:30N 42°37' W 070°39'0 0.0
2017-Oct-08 19:00N 42°37' W 070°39'0 0.0
2017-Oct-08 18:30N 42°37' W 070°39'0 0.0
2017-Oct-08 18:00N 42°37' W 070°39'0 0.0
2017-Oct-08 17:30N 42°37' W 070°39'0 0.0
2017-Oct-08 17:00N 42°37' W 070°39'0 0.0
2017-Oct-08 16:31N 42°37' W 070°39'0 0.0
2017-Oct-08 16:01N 42°37' W 070°39'0 0.0
2017-Oct-08 15:30N 42°37' W 070°39'0 0.0
2017-Oct-08 15:00N 42°37' W 070°39'0 0.0
2017-Oct-08 14:31N 42°37' W 070°39'0 0.0
2017-Oct-08 14:00N 42°37' W 070°39'0 0.0
2017-Oct-08 13:31N 42°37' W 070°39'0 0.0
2017-Oct-08 13:01N 42°37' W 070°39'0 0.0
2017-Oct-08 12:31N 42°37' W 070°39'0 0.0
2017-Oct-08 12:01N 42°37' W 070°39'0 0.0
2017-Oct-08 11:30N 42°37' W 070°39'0 0.0
2017-Oct-08 11:01N 42°37' W 070°39'0 0.0
2017-Oct-08 10:30N 42°37' W 070°39'0 0.0
2017-Oct-08 10:00N 42°37' W 070°39'0 0.0
2017-Oct-08 09:31N 42°37' W 070°39'0 0.0
2017-Oct-08 09:01N 42°37' W 070°39'0 0.0
2017-Oct-08 08:30N 42°37' W 070°39'0 0.0
2017-Oct-08 08:00N 42°37' W 070°39'0 0.0
2017-Oct-08 07:31N 42°37' W 070°39'0 0.0
2017-Oct-08 07:00N 42°37' W 070°39'0 0.0
2017-Oct-08 06:31N 42°37' W 070°39'0 0.0
2017-Oct-08 06:00N 42°37' W 070°39'0 0.0
2017-Oct-08 05:30N 42°37' W 070°39'0 0.0
2017-Oct-08 05:00N 42°37' W 070°39'0 0.0
2017-Oct-08 04:30N 42°37' W 070°39'0 0.0
2017-Oct-08 04:01N 42°37' W 070°39'0 0.0
2017-Oct-08 03:30N 42°37' W 070°39'0 0.0
2017-Oct-08 03:01N 42°37' W 070°39'0 0.0
2017-Oct-08 02:30N 42°37' W 070°39'0 0.0
2017-Oct-08 02:00N 42°37' W 070°39'  
Track history (hours):
 
Tides and Currents Weather Stations Pressure Air Temp Water Temp Dewpoint Dewpoint Depression Visibility Wind Speed Wind Dir Waves Ship Positions

Tyler

Owner: F/V Tyler Inc, Gloucester, MA. More information available from US FCC via Universal Licensing System and Coast Guard Vessel Documentation Center.

Last reported at 2017-Oct-18 01:55 UTC. Time now 2017-Oct-20 19:39 UTC.
Position N 42°39' W 070°18'.

Length 20 m; draft 14 m.

Type: Ship. MMSI: 367602610.

Date/timePositionNaut miles runAvg speedWind from/ knotsBaromVisibWave heightAir tempDewpointWater temp
2017-Oct-18 01:55N 42°39' W 070°18'2 5.4
2017-Oct-18 01:30N 42°39' W 070°21'4 7.7
2017-Oct-18 01:00N 42°37' W 070°26'4 7.9
2017-Oct-18 00:30N 42°36' W 070°31'4 7.9
2017-Oct-18 00:00N 42°35' W 070°36'4 7.1
2017-Oct-17 23:30N 42°34' W 070°41'3 5.0
2017-Oct-17 23:00N 42°37' W 070°39'0 0.1
2017-Oct-17 22:30N 42°37' W 070°39'0 0.0
2017-Oct-17 22:00N 42°37' W 070°39'0 0.0
2017-Oct-17 21:30N 42°37' W 070°39'0 0.0
2017-Oct-17 21:00N 42°37' W 070°39'0 0.0
2017-Oct-17 20:30N 42°37' W 070°39'0 0.0
2017-Oct-17 20:00N 42°37' W 070°39'0 0.0
2017-Oct-17 19:30N 42°37' W 070°39'0 0.0
2017-Oct-17 19:00N 42°37' W 070°39'0 0.0
2017-Oct-17 18:30N 42°37' W 070°39'0 0.9
2017-Oct-17 18:00N 42°37' W 070°40'0 0.0
2017-Oct-17 17:30N 42°37' W 070°40'0 0.0
2017-Oct-17 17:00N 42°37' W 070°40'0 0.0
2017-Oct-17 16:30N 42°37' W 070°40'0 0.2
2017-Oct-17 16:00N 42°37' W 070°40'0 0.0
2017-Oct-17 15:31N 42°37' W 070°40'0 0.0
2017-Oct-17 15:00N 42°37' W 070°40'0 0.0
2017-Oct-17 14:30N 42°37' W 070°40'0 0.0
2017-Oct-17 14:00N 42°37' W 070°40'0 0.0
2017-Oct-17 13:30N 42°37' W 070°40'0 0.0
2017-Oct-17 13:01N 42°37' W 070°40'0 0.0
2017-Oct-17 12:30N 42°37' W 070°40'1 1.0
2017-Oct-17 12:00N 42°37' W 070°39'0 0.0
2017-Oct-17 11:30N 42°37' W 070°39'0 0.0
2017-Oct-17 11:00N 42°37' W 070°39'0 0.0
2017-Oct-17 10:30N 42°37' W 070°39'0 0.0
2017-Oct-17 10:00N 42°37' W 070°39'0 0.0
2017-Oct-17 09:30N 42°37' W 070°39'0 0.0
2017-Oct-17 09:00N 42°37' W 070°39'0 0.0
2017-Oct-17 08:30N 42°37' W 070°39'0 0.0
2017-Oct-17 08:00N 42°37' W 070°39'0 0.0
2017-Oct-17 07:31N 42°37' W 070°39'0 0.0
2017-Oct-17 07:00N 42°37' W 070°39'0 0.0
2017-Oct-17 06:30N 42°37' W 070°39'0 0.0
2017-Oct-17 06:00N 42°37' W 070°39'0 0.0
2017-Oct-17 05:30N 42°37' W 070°39'0 0.0
2017-Oct-17 05:00N 42°37' W 070°39'0 0.0
2017-Oct-17 04:30N 42°37' W 070°39'0 0.0
2017-Oct-17 04:00N 42°37' W 070°39'0 0.0
2017-Oct-17 03:30N 42°37' W 070°39'0 0.0
2017-Oct-17 03:00N 42°37' W 070°39'0 0.0
2017-Oct-17 02:30N 42°37' W 070°39'0 0.0
2017-Oct-17 02:00N 42°37' W 070°39'0 0.0
2017-Oct-17 01:30N 42°37' W 070°39'0 0.0
2017-Oct-17 01:00N 42°37' W 070°39'0 0.0
2017-Oct-17 00:30N 42°37' W 070°39'0 0.0
2017-Oct-17 00:00N 42°37' W 070°39'0 0.0
2017-Oct-16 23:30N 42°37' W 070°39'0 0.0
2017-Oct-16 23:00N 42°37' W 070°39'0 0.0
2017-Oct-16 22:30N 42°37' W 070°39'0 0.0
2017-Oct-16 22:00N 42°37' W 070°39'0 0.0
2017-Oct-16 21:30N 42°37' W 070°39'0 0.0
2017-Oct-16 21:00N 42°37' W 070°39'0 0.0
2017-Oct-16 20:30N 42°37' W 070°39'0 0.0
2017-Oct-16 20:00N 42°37' W 070°39'0 0.0
2017-Oct-16 19:30N 42°37' W 070°39'0 0.0
2017-Oct-16 19:00N 42°37' W 070°39'0 0.0
2017-Oct-16 18:30N 42°37' W 070°39'0 0.0
2017-Oct-16 18:00N 42°37' W 070°39'0 0.0
2017-Oct-16 17:30N 42°37' W 070°39'0 0.0
2017-Oct-16 17:00N 42°37' W 070°39'0 0.0
2017-Oct-16 16:30N 42°37' W 070°39'0 0.0
2017-Oct-16 16:00N 42°37' W 070°39'0 0.0
2017-Oct-16 15:30N 42°37' W 070°39'0 0.0
2017-Oct-16 15:00N 42°37' W 070°39'0 0.0
2017-Oct-16 14:00N 42°37' W 070°39'0 0.8
2017-Oct-16 13:30N 42°37' W 070°40'2 4.7
2017-Oct-16 13:00N 42°34' W 070°40'4 7.1
2017-Oct-16 12:30N 42°35' W 070°35'3 5.8
2017-Oct-16 12:00N 42°37' W 070°32'3 6.6
2017-Oct-16 11:30N 42°39' W 070°28'3 6.0
2017-Oct-16 11:00N 42°39' W 070°24'3 5.5
2017-Oct-16 10:30N 42°40' W 070°21'3 5.5
2017-Oct-16 10:00N 42°41' W 070°17'  
2017-Oct-11 23:13N 42°43' W 070°13'2 8.8
2017-Oct-11 23:00N 42°42' W 070°15'4 8.9
2017-Oct-11 22:30N 42°40' W 070°20'4 8.9
2017-Oct-11 22:00N 42°38' W 070°26'4 8.6
2017-Oct-11 21:30N 42°36' W 070°31'4 8.7
2017-Oct-11 21:00N 42°35' W 070°37'3 5.9
2017-Oct-11 20:30N 42°36' W 070°41'2 3.0
2017-Oct-11 20:00N 42°37' W 070°39'0 0.9
2017-Oct-11 19:30N 42°37' W 070°40'0 0.1
2017-Oct-11 19:00N 42°37' W 070°40'0 0.0
2017-Oct-11 18:30N 42°37' W 070°40'0 0.9
2017-Oct-11 18:00N 42°37' W 070°39'0 0.0
2017-Oct-11 17:30N 42°37' W 070°39'0 0.0
2017-Oct-11 17:00N 42°37' W 070°39'0 0.0
2017-Oct-11 00:00N 42°37' W 070°39'0 0.0
2017-Oct-10 23:30N 42°37' W 070°39'0 0.0
2017-Oct-10 23:00N 42°37' W 070°39'0 0.0
2017-Oct-10 22:30N 42°37' W 070°39'0 0.0
2017-Oct-10 22:00N 42°37' W 070°39'0 0.0
2017-Oct-10 21:30N 42°37' W 070°39'0 0.0
2017-Oct-10 21:00N 42°37' W 070°39'0 0.0
2017-Oct-10 20:30N 42°37' W 070°39'0 0.2
2017-Oct-10 20:00N 42°37' W 070°39'0 0.0
2017-Oct-10 19:30N 42°37' W 070°39'0 0.0
2017-Oct-10 19:00N 42°37' W 070°39'0 0.0
2017-Oct-10 18:30N 42°37' W 070°39'0 0.0
2017-Oct-10 18:00N 42°37' W 070°39'0 0.0
2017-Oct-10 17:30N 42°37' W 070°39'0 0.0
2017-Oct-10 17:01N 42°37' W 070°39'0 0.3
2017-Oct-10 16:31N 42°37' W 070°39'0 0.1
2017-Oct-10 15:28N 42°37' W 070°39'0 0.0
2017-Oct-10 15:00N 42°37' W 070°39'0 0.0
2017-Oct-10 14:00N 42°37' W 070°39'0 0.0
2017-Oct-10 13:30N 42°37' W 070°39'0 0.0
2017-Oct-10 13:01N 42°37' W 070°39'0 0.0
2017-Oct-10 12:31N 42°37' W 070°39'0 0.0
2017-Oct-10 12:00N 42°37' W 070°39'0 0.0
2017-Oct-10 11:30N 42°37' W 070°39'0 0.0
2017-Oct-10 11:00N 42°37' W 070°39'0 0.0
2017-Oct-10 10:30N 42°37' W 070°39'0 0.0
2017-Oct-10 10:00N 42°37' W 070°39'0 0.0
2017-Oct-10 09:30N 42°37' W 070°39'0 0.0
2017-Oct-10 09:00N 42°37' W 070°39'0 0.0
2017-Oct-10 08:30N 42°37' W 070°39'0 0.0
2017-Oct-10 08:01N 42°37' W 070°39'0 0.0
2017-Oct-10 07:30N 42°37' W 070°39'0 0.0
2017-Oct-10 07:00N 42°37' W 070°39'0 0.0
2017-Oct-10 06:31N 42°37' W 070°39'0 0.0
2017-Oct-10 06:01N 42°37' W 070°39'0 0.0
2017-Oct-10 05:31N 42°37' W 070°39'0 0.0
2017-Oct-10 05:01N 42°37' W 070°39'0 0.0
2017-Oct-10 04:30N 42°37' W 070°39'0 0.0
2017-Oct-10 04:01N 42°37' W 070°39'0 0.0
2017-Oct-10 03:31N 42°37' W 070°39'0 0.0
2017-Oct-10 03:01N 42°37' W 070°39'0 0.0
2017-Oct-10 02:31N 42°37' W 070°39'0 0.0
2017-Oct-10 02:00N 42°37' W 070°39'0 0.0
2017-Oct-10 01:30N 42°37' W 070°39'0 0.0
2017-Oct-10 01:00N 42°37' W 070°39'0 0.0
2017-Oct-10 00:31N 42°37' W 070°39'0 0.0
2017-Oct-10 00:00N 42°37' W 070°39'0 0.0
2017-Oct-09 23:31N 42°37' W 070°39'0 0.0
2017-Oct-09 23:00N 42°37' W 070°39'0 0.0
2017-Oct-09 22:31N 42°37' W 070°39'0 0.0
2017-Oct-09 22:01N 42°37' W 070°39'0 0.0
2017-Oct-09 21:31N 42°37' W 070°39'0 0.0
2017-Oct-09 21:01N 42°37' W 070°39'0 0.0
2017-Oct-09 20:30N 42°37' W 070°39'0 0.0
2017-Oct-09 20:01N 42°37' W 070°39'0 0.0
2017-Oct-09 19:31N 42°37' W 070°39'0 0.0
2017-Oct-09 19:01N 42°37' W 070°39'0 0.0
2017-Oct-09 18:30N 42°37' W 070°39'0 0.0
2017-Oct-09 18:01N 42°37' W 070°39'0 0.0
2017-Oct-09 17:30N 42°37' W 070°39'0 0.0
2017-Oct-09 17:00N 42°37' W 070°39'0 0.0
2017-Oct-09 16:30N 42°37' W 070°39'0 0.0
2017-Oct-09 16:00N 42°37' W 070°39'0 0.0
2017-Oct-09 15:31N 42°37' W 070°39'0 0.0
2017-Oct-09 15:00N 42°37' W 070°39'0 0.0
2017-Oct-09 14:30N 42°37' W 070°39'0 0.0
2017-Oct-09 14:00N 42°37' W 070°39'0 0.0
2017-Oct-09 13:30N 42°37' W 070°39'0 0.0
2017-Oct-09 13:00N 42°37' W 070°39'0 0.0
2017-Oct-09 12:30N 42°37' W 070°39'0 0.0
2017-Oct-09 12:00N 42°37' W 070°39'0 0.0
2017-Oct-09 11:30N 42°37' W 070°39'0 0.0
2017-Oct-09 11:00N 42°37' W 070°39'0 0.0
2017-Oct-09 10:30N 42°37' W 070°39'0 0.0
2017-Oct-09 10:00N 42°37' W 070°39'0 0.0
2017-Oct-09 09:30N 42°37' W 070°39'0 0.0
2017-Oct-09 09:00N 42°37' W 070°39'0 0.0
2017-Oct-09 08:30N 42°37' W 070°39'0 0.0
2017-Oct-09 08:00N 42°37' W 070°39'0 0.0
2017-Oct-09 07:30N 42°37' W 070°39'0 0.0
2017-Oct-09 07:01N 42°37' W 070°39'0 0.0
2017-Oct-09 06:31N 42°37' W 070°39'0 0.0
2017-Oct-09 06:01N 42°37' W 070°39'0 0.0
2017-Oct-09 05:29N 42°37' W 070°39'0 0.0
2017-Oct-09 05:00N 42°37' W 070°39'0 0.0
2017-Oct-09 04:30N 42°37' W 070°39'0 0.0
2017-Oct-09 04:00N 42°37' W 070°39'0 0.0
2017-Oct-09 03:30N 42°37' W 070°39'0 0.0
2017-Oct-09 03:01N 42°37' W 070°39'0 0.0
2017-Oct-09 02:30N 42°37' W 070°39'0 0.0
2017-Oct-09 02:01N 42°37' W 070°39'0 0.0
2017-Oct-09 01:30N 42°37' W 070°39'0 0.0
2017-Oct-09 01:00N 42°37' W 070°39'0 0.0
2017-Oct-09 00:31N 42°37' W 070°39'0 0.0
2017-Oct-09 00:00N 42°37' W 070°39'0 0.0
2017-Oct-08 23:31N 42°37' W 070°39'0 0.0
2017-Oct-08 23:00N 42°37' W 070°39'0 0.0
2017-Oct-08 22:31N 42°37' W 070°39'0 0.0
2017-Oct-08 22:01N 42°37' W 070°39'0 0.0
2017-Oct-08 21:31N 42°37' W 070°39'0 0.0
2017-Oct-08 21:00N 42°37' W 070°39'0 0.0
2017-Oct-08 20:30N 42°37' W 070°39'0 0.0
2017-Oct-08 20:00N 42°37' W 070°39'0 0.0
2017-Oct-08 19:30N 42°37' W 070°39'0 0.0
2017-Oct-08 19:00N 42°37' W 070°39'0 0.0
2017-Oct-08 18:30N 42°37' W 070°39'0 0.0
2017-Oct-08 18:00N 42°37' W 070°39'0 0.0
2017-Oct-08 17:30N 42°37' W 070°39'0 0.0
2017-Oct-08 17:00N 42°37' W 070°39'0 0.0
2017-Oct-08 16:31N 42°37' W 070°39'0 0.0
2017-Oct-08 16:01N 42°37' W 070°39'0 0.0
2017-Oct-08 15:30N 42°37' W 070°39'0 0.0
2017-Oct-08 15:00N 42°37' W 070°39'0 0.0
2017-Oct-08 14:31N 42°37' W 070°39'0 0.0
2017-Oct-08 14:00N 42°37' W 070°39'0 0.0
2017-Oct-08 13:31N 42°37' W 070°39'0 0.0
2017-Oct-08 13:01N 42°37' W 070°39'0 0.0
2017-Oct-08 12:31N 42°37' W 070°39'0 0.0
2017-Oct-08 12:01N 42°37' W 070°39'0 0.0
2017-Oct-08 11:30N 42°37' W 070°39'0 0.0
2017-Oct-08 11:01N 42°37' W 070°39'0 0.0
2017-Oct-08 10:30N 42°37' W 070°39'0 0.0
2017-Oct-08 10:00N 42°37' W 070°39'0 0.0
2017-Oct-08 09:31N 42°37' W 070°39'0 0.0
2017-Oct-08 09:01N 42°37' W 070°39'0 0.0
2017-Oct-08 08:30N 42°37' W 070°39'0 0.0
2017-Oct-08 08:00N 42°37' W 070°39'0 0.0
2017-Oct-08 07:31N 42°37' W 070°39'0 0.0
2017-Oct-08 07:00N 42°37' W 070°39'0 0.0
2017-Oct-08 06:31N 42°37' W 070°39'0 0.0
2017-Oct-08 06:00N 42°37' W 070°39'0 0.0
2017-Oct-08 05:30N 42°37' W 070°39'0 0.0
2017-Oct-08 05:00N 42°37' W 070°39'0 0.0
2017-Oct-08 04:30N 42°37' W 070°39'0 0.0
2017-Oct-08 04:01N 42°37' W 070°39'0 0.0
2017-Oct-08 03:30N 42°37' W 070°39'0 0.0
2017-Oct-08 03:01N 42°37' W 070°39'0 0.0
2017-Oct-08 02:30N 42°37' W 070°39'0 0.0
2017-Oct-08 02:00N 42°37' W 070°39'  

Dump ship's entire track history